sensor_id;sensor_type;location;lat;lon;timestamp;P1;durP1;ratioP1;P2;durP2;ratioP2
321;SDS011;148;51.480;7.208;2024-01-30T12:33:18;8.43;;;5.70;;
321;SDS011;148;51.480;7.208;2024-01-30T12:35:46;13.25;;;6.70;;
321;SDS011;148;51.480;7.208;2024-01-30T12:38:14;16.83;;;7.00;;
321;SDS011;148;51.480;7.208;2024-01-30T12:40:40;21.97;;;7.20;;
321;SDS011;148;51.480;7.208;2024-01-30T12:43:06;13.53;;;6.30;;
321;SDS011;148;51.480;7.208;2024-01-30T12:45:32;20.50;;;7.47;;
321;SDS011;148;51.480;7.208;2024-01-30T12:47:58;16.60;;;7.10;;
321;SDS011;148;51.480;7.208;2024-01-30T12:50:23;17.63;;;7.37;;
321;SDS011;148;51.480;7.208;2024-01-30T12:52:49;18.27;;;6.70;;
321;SDS011;148;51.480;7.208;2024-01-30T12:55:15;16.50;;;7.43;;
321;SDS011;148;51.480;7.208;2024-01-30T12:57:41;14.93;;;6.97;;
321;SDS011;148;51.480;7.208;2024-01-30T13:00:07;17.55;;;7.50;;
321;SDS011;148;51.480;7.208;2024-01-30T13:02:34;12.60;;;6.77;;
321;SDS011;148;51.480;7.208;2024-01-30T13:05:04;14.10;;;8.63;;
321;SDS011;148;51.480;7.208;2024-01-30T13:07:30;21.63;;;6.87;;
321;SDS011;148;51.480;7.208;2024-01-30T13:09:59;19.93;;;7.13;;
321;SDS011;148;51.480;7.208;2024-01-30T13:12:28;15.45;;;7.90;;
321;SDS011;148;51.480;7.208;2024-01-30T13:14:53;14.53;;;7.27;;
321;SDS011;148;51.480;7.208;2024-01-30T13:17:19;18.17;;;8.17;;
321;SDS011;148;51.480;7.208;2024-01-30T13:19:45;13.47;;;7.57;;
321;SDS011;148;51.480;7.208;2024-01-30T13:22:11;19.80;;;7.37;;
321;SDS011;148;51.480;7.208;2024-01-30T13:24:36;16.93;;;7.63;;
321;SDS011;148;51.480;7.208;2024-01-30T13:27:02;13.57;;;7.63;;
321;SDS011;148;51.480;7.208;2024-01-30T13:29:30;13.27;;;6.50;;
321;SDS011;148;51.480;7.208;2024-01-30T13:31:56;14.20;;;6.90;;
321;SDS011;148;51.480;7.208;2024-01-30T13:34:22;15.67;;;7.60;;
321;SDS011;148;51.480;7.208;2024-01-30T13:36:47;23.13;;;8.67;;
321;SDS011;148;51.480;7.208;2024-01-30T13:39:14;14.07;;;7.23;;
321;SDS011;148;51.480;7.208;2024-01-30T13:41:41;17.10;;;7.30;;
321;SDS011;148;51.480;7.208;2024-01-30T13:44:07;18.03;;;7.90;;
321;SDS011;148;51.480;7.208;2024-01-30T13:46:33;14.27;;;7.50;;
321;SDS011;148;51.480;7.208;2024-01-30T13:48:59;15.60;;;7.50;;
321;SDS011;148;51.480;7.208;2024-01-30T13:51:25;13.87;;;7.23;;
321;SDS011;148;51.480;7.208;2024-01-30T13:53:51;18.83;;;7.60;;
321;SDS011;148;51.480;7.208;2024-01-30T13:56:17;20.70;;;7.97;;
321;SDS011;148;51.480;7.208;2024-01-30T13:58:42;25.03;;;7.87;;
321;SDS011;148;51.480;7.208;2024-01-30T14:01:08;16.50;;;8.57;;
321;SDS011;148;51.480;7.208;2024-01-30T14:03:35;14.40;;;8.33;;
321;SDS011;148;51.480;7.208;2024-01-30T14:06:00;19.37;;;7.70;;
321;SDS011;148;51.480;7.208;2024-01-30T14:08:26;11.70;;;7.63;;
321;SDS011;148;51.480;7.208;2024-01-30T14:10:53;21.47;;;7.70;;
321;SDS011;148;51.480;7.208;2024-01-30T14:13:20;13.10;;;6.73;;
321;SDS011;148;51.480;7.208;2024-01-30T14:15:47;15.50;;;8.00;;
321;SDS011;148;51.480;7.208;2024-01-30T14:18:14;12.40;;;6.73;;
321;SDS011;148;51.480;7.208;2024-01-30T14:20:40;15.50;;;7.27;;
321;SDS011;148;51.480;7.208;2024-01-30T14:23:06;15.10;;;8.43;;
321;SDS011;148;51.480;7.208;2024-01-30T14:25:32;20.77;;;7.90;;
321;SDS011;148;51.480;7.208;2024-01-30T14:27:57;12.17;;;7.00;;
321;SDS011;148;51.480;7.208;2024-01-30T14:30:23;14.70;;;7.40;;
321;SDS011;148;51.480;7.208;2024-01-30T14:32:51;22.50;;;8.00;;
321;SDS011;148;51.480;7.208;2024-01-30T14:35:17;15.50;;;8.03;;
321;SDS011;148;51.480;7.208;2024-01-30T14:37:44;17.80;;;7.60;;
321;SDS011;148;51.480;7.208;2024-01-30T14:40:10;18.67;;;7.20;;
321;SDS011;148;51.480;7.208;2024-01-30T14:42:36;18.80;;;7.33;;
321;SDS011;148;51.480;7.208;2024-01-30T14:45:02;14.10;;;6.93;;
321;SDS011;148;51.480;7.208;2024-01-30T14:47:29;16.13;;;7.47;;
321;SDS011;148;51.480;7.208;2024-01-30T14:49:56;16.37;;;7.50;;
321;SDS011;148;51.480;7.208;2024-01-30T14:52:22;15.47;;;8.10;;
321;SDS011;148;51.480;7.208;2024-01-30T14:54:47;19.60;;;7.90;;
321;SDS011;148;51.480;7.208;2024-01-30T14:57:13;19.03;;;8.83;;
321;SDS011;148;51.480;7.208;2024-01-30T14:59:39;18.43;;;9.23;;
321;SDS011;148;51.480;7.208;2024-01-30T15:02:08;17.57;;;8.43;;
321;SDS011;148;51.480;7.208;2024-01-30T15:04:34;18.43;;;7.67;;
321;SDS011;148;51.480;7.208;2024-01-30T15:06:59;15.57;;;7.90;;
321;SDS011;148;51.480;7.208;2024-01-30T15:09:25;15.60;;;7.50;;
321;SDS011;148;51.480;7.208;2024-01-30T15:11:51;20.60;;;8.47;;
321;SDS011;148;51.480;7.208;2024-01-30T15:14:17;16.07;;;7.77;;
321;SDS011;148;51.480;7.208;2024-01-30T15:16:43;15.50;;;8.17;;
321;SDS011;148;51.480;7.208;2024-01-30T15:19:09;16.50;;;8.73;;
321;SDS011;148;51.480;7.208;2024-01-30T15:21:39;12.97;;;8.40;;
321;SDS011;148;51.480;7.208;2024-01-30T15:24:05;13.33;;;7.60;;
321;SDS011;148;51.480;7.208;2024-01-30T15:26:30;19.57;;;8.47;;
321;SDS011;148;51.480;7.208;2024-01-30T15:28:56;18.93;;;8.77;;
321;SDS011;148;51.480;7.208;2024-01-30T15:31:22;20.27;;;8.33;;
321;SDS011;148;51.480;7.208;2024-01-30T15:33:47;18.53;;;8.40;;
321;SDS011;148;51.480;7.208;2024-01-30T15:36:13;21.50;;;8.70;;
321;SDS011;148;51.480;7.208;2024-01-30T15:38:39;20.47;;;9.40;;
321;SDS011;148;51.480;7.208;2024-01-30T15:41:05;18.30;;;8.50;;
321;SDS011;148;51.480;7.208;2024-01-30T15:43:31;16.40;;;7.50;;
321;SDS011;148;51.480;7.208;2024-01-30T15:45:58;13.73;;;8.30;;
321;SDS011;148;51.480;7.208;2024-01-30T15:48:26;16.50;;;7.40;;
321;SDS011;148;51.480;7.208;2024-01-30T15:50:51;14.50;;;6.27;;
321;SDS011;148;51.480;7.208;2024-01-30T15:53:19;21.20;;;6.27;;
321;SDS011;148;51.480;7.208;2024-01-30T15:55:45;10.80;;;5.60;;
321;SDS011;148;51.480;7.208;2024-01-30T15:58:11;11.90;;;5.50;;
321;SDS011;148;51.480;7.208;2024-01-30T16:00:36;9.43;;;6.03;;
321;SDS011;148;51.480;7.208;2024-01-30T16:03:02;7.90;;;4.60;;
321;SDS011;148;51.480;7.208;2024-01-30T16:05:28;12.90;;;5.50;;
321;SDS011;148;51.480;7.208;2024-01-30T16:07:56;15.47;;;5.47;;
321;SDS011;148;51.480;7.208;2024-01-30T16:10:21;11.87;;;5.07;;
321;SDS011;148;51.480;7.208;2024-01-30T16:12:47;11.20;;;5.00;;
321;SDS011;148;51.480;7.208;2024-01-30T16:15:13;9.53;;;4.70;;
321;SDS011;148;51.480;7.208;2024-01-30T16:17:39;8.70;;;3.90;;
321;SDS011;148;51.480;7.208;2024-01-30T16:20:06;4.63;;;3.30;;
321;SDS011;148;51.480;7.208;2024-01-30T16:22:33;7.33;;;3.63;;
321;SDS011;148;51.480;7.208;2024-01-30T16:25:00;7.63;;;2.90;;
321;SDS011;148;51.480;7.208;2024-01-30T16:27:26;4.23;;;2.27;;
321;SDS011;148;51.480;7.208;2024-01-30T16:29:51;5.43;;;2.90;;
321;SDS011;148;51.480;7.208;2024-01-30T16:32:18;3.57;;;2.50;;
321;SDS011;148;51.480;7.208;2024-01-30T16:34:43;7.73;;;2.47;;
321;SDS011;148;51.480;7.208;2024-01-30T16:37:10;5.77;;;2.37;;
321;SDS011;148;51.480;7.208;2024-01-30T16:39:36;5.87;;;2.40;;
321;SDS011;148;51.480;7.208;2024-01-30T16:42:01;5.93;;;3.00;;
321;SDS011;148;51.480;7.208;2024-01-30T16:44:28;3.47;;;2.10;;
321;SDS011;148;51.480;7.208;2024-01-30T16:46:54;3.87;;;2.50;;
321;SDS011;148;51.480;7.208;2024-01-30T16:49:19;4.93;;;3.70;;
321;SDS011;148;51.480;7.208;2024-01-30T16:51:45;8.40;;;4.07;;
321;SDS011;148;51.480;7.208;2024-01-30T16:54:11;3.50;;;2.77;;
321;SDS011;148;51.480;7.208;2024-01-30T16:56:37;5.73;;;2.47;;
321;SDS011;148;51.480;7.208;2024-01-30T16:59:02;4.73;;;2.10;;
321;SDS011;148;51.480;7.208;2024-01-30T17:01:28;3.07;;;2.30;;
321;SDS011;148;51.480;7.208;2024-01-30T17:03:54;4.50;;;2.03;;
321;SDS011;148;51.480;7.208;2024-01-30T17:06:20;8.93;;;2.27;;
321;SDS011;148;51.480;7.208;2024-01-30T17:08:46;4.00;;;2.50;;
321;SDS011;148;51.480;7.208;2024-01-30T17:11:11;5.80;;;2.13;;
321;SDS011;148;51.480;7.208;2024-01-30T17:13:37;3.97;;;2.67;;
321;SDS011;148;51.480;7.208;2024-01-30T17:16:03;4.40;;;2.70;;
321;SDS011;148;51.480;7.208;2024-01-30T17:18:32;14.83;;;4.77;;
321;SDS011;148;51.480;7.208;2024-01-30T17:20:58;4.83;;;2.53;;
321;SDS011;148;51.480;7.208;2024-01-30T17:23:24;5.30;;;2.50;;
321;SDS011;148;51.480;7.208;2024-01-30T17:25:51;3.40;;;2.37;;
321;SDS011;148;51.480;7.208;2024-01-30T17:28:16;2.83;;;2.40;;
321;SDS011;148;51.480;7.208;2024-01-30T17:30:42;4.73;;;2.50;;
321;SDS011;148;51.480;7.208;2024-01-30T17:33:08;5.37;;;2.20;;
321;SDS011;148;51.480;7.208;2024-01-30T17:35:33;6.53;;;2.97;;
321;SDS011;148;51.480;7.208;2024-01-30T17:37:59;7.43;;;2.73;;
321;SDS011;148;51.480;7.208;2024-01-30T17:40:24;5.67;;;2.50;;
321;SDS011;148;51.480;7.208;2024-01-30T17:42:50;6.60;;;2.90;;
321;SDS011;148;51.480;7.208;2024-01-30T17:45:16;7.97;;;2.70;;
321;SDS011;148;51.480;7.208;2024-01-30T17:47:41;6.53;;;2.60;;
321;SDS011;148;51.480;7.208;2024-01-30T17:50:07;5.33;;;2.20;;
321;SDS011;148;51.480;7.208;2024-01-30T17:52:33;6.33;;;2.87;;
321;SDS011;148;51.480;7.208;2024-01-30T17:55:03;4.73;;;2.67;;
321;SDS011;148;51.480;7.208;2024-01-30T17:57:29;9.40;;;3.30;;
321;SDS011;148;51.480;7.208;2024-01-30T17:59:55;5.97;;;2.70;;
321;SDS011;148;51.480;7.208;2024-01-30T18:02:20;10.20;;;3.37;;
321;SDS011;148;51.480;7.208;2024-01-30T18:04:47;7.83;;;2.73;;
321;SDS011;148;51.480;7.208;2024-01-30T18:07:13;6.47;;;3.63;;
321;SDS011;148;51.480;7.208;2024-01-30T18:09:39;5.83;;;4.30;;
321;SDS011;148;51.480;7.208;2024-01-30T18:12:05;6.63;;;3.97;;
321;SDS011;148;51.480;7.208;2024-01-30T18:14:31;8.43;;;4.27;;
321;SDS011;148;51.480;7.208;2024-01-30T18:16:57;7.00;;;4.07;;
321;SDS011;148;51.480;7.208;2024-01-30T18:19:23;4.37;;;3.13;;
321;SDS011;148;51.480;7.208;2024-01-30T18:21:48;6.93;;;3.23;;
321;SDS011;148;51.480;7.208;2024-01-30T18:24:14;7.13;;;2.70;;
321;SDS011;148;51.480;7.208;2024-01-30T18:26:40;7.90;;;3.40;;
321;SDS011;148;51.480;7.208;2024-01-30T18:29:09;4.47;;;2.97;;
321;SDS011;148;51.480;7.208;2024-01-30T18:31:34;14.23;;;3.37;;
321;SDS011;148;51.480;7.208;2024-01-30T18:34:00;4.90;;;3.00;;
321;SDS011;148;51.480;7.208;2024-01-30T18:36:26;5.67;;;2.73;;
321;SDS011;148;51.480;7.208;2024-01-30T18:38:51;4.10;;;3.07;;
321;SDS011;148;51.480;7.208;2024-01-30T18:41:20;4.20;;;2.87;;
321;SDS011;148;51.480;7.208;2024-01-30T18:43:46;7.20;;;3.07;;
321;SDS011;148;51.480;7.208;2024-01-30T18:46:12;4.23;;;2.93;;
321;SDS011;148;51.480;7.208;2024-01-30T18:48:37;5.80;;;3.00;;
321;SDS011;148;51.480;7.208;2024-01-30T18:51:04;4.67;;;2.70;;
321;SDS011;148;51.480;7.208;2024-01-30T18:53:30;4.50;;;2.60;;
321;SDS011;148;51.480;7.208;2024-01-30T18:55:56;6.97;;;2.67;;
321;SDS011;148;51.480;7.208;2024-01-30T18:58:21;6.27;;;2.93;;
321;SDS011;148;51.480;7.208;2024-01-30T19:00:48;7.30;;;3.73;;
321;SDS011;148;51.480;7.208;2024-01-30T19:03:13;3.93;;;2.97;;
321;SDS011;148;51.480;7.208;2024-01-30T19:05:41;5.87;;;3.23;;
321;SDS011;148;51.480;7.208;2024-01-30T19:08:07;4.37;;;2.90;;
321;SDS011;148;51.480;7.208;2024-01-30T19:10:32;4.00;;;2.60;;
321;SDS011;148;51.480;7.208;2024-01-30T19:13:00;8.20;;;3.10;;
321;SDS011;148;51.480;7.208;2024-01-30T19:15:25;5.13;;;2.80;;
321;SDS011;148;51.480;7.208;2024-01-30T19:17:51;8.40;;;3.20;;
321;SDS011;148;51.480;7.208;2024-01-30T19:20:16;8.97;;;3.07;;
321;SDS011;148;51.480;7.208;2024-01-30T19:22:42;3.10;;;2.87;;
321;SDS011;148;51.480;7.208;2024-01-30T19:25:08;4.73;;;3.17;;
321;SDS011;148;51.480;7.208;2024-01-30T19:27:34;7.07;;;3.30;;
321;SDS011;148;51.480;7.208;2024-01-30T19:29:59;7.00;;;3.00;;
321;SDS011;148;51.480;7.208;2024-01-30T19:32:25;6.93;;;3.40;;
321;SDS011;148;51.480;7.208;2024-01-30T19:34:50;7.00;;;3.60;;
321;SDS011;148;51.480;7.208;2024-01-30T19:37:19;7.87;;;3.57;;
321;SDS011;148;51.480;7.208;2024-01-30T19:39:52;5.70;;;3.37;;
321;SDS011;148;51.480;7.208;2024-01-30T19:42:18;6.00;;;3.47;;
321;SDS011;148;51.480;7.208;2024-01-30T19:44:46;6.17;;;3.27;;
321;SDS011;148;51.480;7.208;2024-01-30T19:47:12;10.23;;;5.10;;
321;SDS011;148;51.480;7.208;2024-01-30T19:49:37;7.80;;;4.50;;
321;SDS011;148;51.480;7.208;2024-01-30T19:52:07;6.65;;;3.95;;
321;SDS011;148;51.480;7.208;2024-01-30T19:54:34;7.50;;;3.60;;
321;SDS011;148;51.480;7.208;2024-01-30T19:59:29;12.20;;;5.00;;
321;SDS011;148;51.480;7.208;2024-01-30T20:01:59;7.10;;;3.80;;
321;SDS011;148;51.480;7.208;2024-01-30T20:04:28;7.05;;;4.25;;
321;SDS011;148;51.480;7.208;2024-01-30T20:06:55;11.50;;;5.50;;
321;SDS011;148;51.480;7.208;2024-01-30T20:14:13;9.57;;;5.20;;
321;SDS011;148;51.480;7.208;2024-01-30T20:16:40;12.87;;;5.50;;
321;SDS011;148;51.480;7.208;2024-01-30T20:19:06;12.10;;;5.90;;
321;SDS011;148;51.480;7.208;2024-01-30T20:21:33;8.83;;;5.17;;
321;SDS011;148;51.480;7.208;2024-01-30T20:23:59;12.27;;;5.77;;
321;SDS011;148;51.480;7.208;2024-01-30T20:26:25;10.23;;;5.47;;
321;SDS011;148;51.480;7.208;2024-01-30T20:28:52;11.87;;;5.80;;
321;SDS011;148;51.480;7.208;2024-01-30T20:31:19;13.60;;;5.30;;
321;SDS011;148;51.480;7.208;2024-01-30T20:33:46;10.30;;;5.70;;
321;SDS011;148;51.480;7.208;2024-01-30T20:36:16;11.07;;;6.80;;
321;SDS011;148;51.480;7.208;2024-01-30T20:38:43;13.80;;;6.50;;
321;SDS011;148;51.480;7.208;2024-01-30T20:41:09;13.10;;;6.60;;
321;SDS011;148;51.480;7.208;2024-01-30T20:43:36;15.83;;;6.60;;
321;SDS011;148;51.480;7.208;2024-01-30T20:46:03;11.60;;;6.60;;
321;SDS011;148;51.480;7.208;2024-01-30T20:48:29;27.67;;;8.10;;
321;SDS011;148;51.480;7.208;2024-01-30T20:50:55;19.57;;;7.80;;
321;SDS011;148;51.480;7.208;2024-01-30T20:53:20;14.17;;;7.00;;
321;SDS011;148;51.480;7.208;2024-01-30T20:55:53;16.93;;;7.70;;
321;SDS011;148;51.480;7.208;2024-01-30T20:58:20;18.27;;;7.77;;
321;SDS011;148;51.480;7.208;2024-01-30T21:00:47;17.33;;;8.00;;
321;SDS011;148;51.480;7.208;2024-01-30T21:03:12;23.23;;;8.50;;
321;SDS011;148;51.480;7.208;2024-01-30T21:05:38;20.03;;;7.43;;
321;SDS011;148;51.480;7.208;2024-01-30T21:08:04;15.47;;;8.13;;
321;SDS011;148;51.480;7.208;2024-01-30T21:10:30;20.50;;;8.87;;
321;SDS011;148;51.480;7.208;2024-01-30T21:12:55;18.83;;;9.03;;
321;SDS011;148;51.480;7.208;2024-01-30T21:15:21;25.20;;;9.10;;
321;SDS011;148;51.480;7.208;2024-01-30T21:17:47;16.73;;;8.70;;
321;SDS011;148;51.480;7.208;2024-01-30T21:20:13;22.27;;;9.30;;
321;SDS011;148;51.480;7.208;2024-01-30T21:22:39;21.23;;;9.50;;
321;SDS011;148;51.480;7.208;2024-01-30T21:25:05;20.50;;;9.90;;
